createdAt,value
2022-12-16T00:00:37.212Z,1.50
2022-12-16T00:03:30.991Z,1.42
2022-12-16T00:06:25.668Z,1.77
2022-12-16T00:09:19.222Z,1.33
2022-12-16T00:12:13.909Z,1.50
2022-12-16T00:15:07.865Z,1.30
2022-12-16T00:18:01.187Z,1.30
2022-12-16T00:20:55.915Z,1.40
2022-12-16T00:23:49.502Z,1.70
2022-12-16T00:26:42.928Z,1.42
2022-12-16T00:29:37.942Z,1.50
2022-12-16T00:32:30.997Z,1.40
2022-12-16T00:35:23.847Z,1.50
2022-12-16T00:38:17.730Z,1.45
2022-12-16T00:41:11.300Z,1.15
2022-12-16T00:44:04.930Z,1.33
2022-12-16T00:46:59.468Z,1.33
2022-12-16T00:49:52.777Z,1.40
2022-12-16T00:52:48.552Z,1.50
2022-12-16T00:55:42.120Z,1.52
2022-12-16T00:58:35.739Z,1.40
2022-12-16T01:01:29.394Z,1.40
2022-12-16T01:04:26.808Z,1.33
2022-12-16T01:07:20.291Z,1.42
2022-12-16T01:10:13.175Z,1.30
2022-12-16T01:13:06.190Z,1.27
2022-12-16T01:16:01.628Z,1.45
2022-12-16T01:18:56.374Z,1.33
2022-12-16T01:21:50.702Z,1.38
2022-12-16T01:24:45.174Z,1.70
2022-12-16T01:27:38.046Z,1.42
2022-12-16T01:30:31.085Z,1.13
2022-12-16T01:33:24.175Z,1.30
2022-12-16T01:36:17.534Z,1.50
2022-12-16T01:39:12.960Z,1.00
2022-12-16T01:42:09.917Z,1.23
2022-12-16T01:45:30.902Z,1.40
2022-12-16T01:48:35.773Z,1.13
2022-12-16T01:51:34.246Z,1.17
2022-12-16T01:54:32.138Z,1.30
2022-12-16T01:57:29.364Z,1.40
2022-12-16T02:00:22.605Z,1.85
2022-12-16T02:03:17.236Z,1.27
2022-12-16T02:06:10.206Z,1.57
2022-12-16T02:09:07.376Z,1.40
2022-12-16T02:12:19.737Z,1.50
2022-12-16T02:15:26.183Z,1.23
2022-12-16T02:18:28.309Z,1.23
2022-12-16T02:21:46.167Z,1.30
2022-12-16T02:25:11.437Z,1.20
2022-12-16T02:28:12.850Z,1.25
2022-12-16T02:31:20.370Z,1.10
2022-12-16T02:34:22.270Z,1.48
2022-12-16T02:37:24.637Z,1.40
2022-12-16T02:40:24.261Z,1.23
2022-12-16T02:43:31.764Z,1.08
2022-12-16T02:46:28.801Z,1.23
2022-12-16T02:49:46.417Z,1.30
2022-12-16T02:52:39.548Z,0.98
2022-12-16T02:55:42.974Z,1.42
2022-12-16T02:58:42.085Z,1.30
2022-12-16T03:01:41.347Z,1.17
2022-12-16T03:04:41.167Z,1.27
2022-12-16T03:07:37.035Z,1.25
2022-12-16T03:10:35.199Z,1.10
2022-12-16T03:13:32.335Z,1.10
2022-12-16T03:16:31.327Z,1.40
2022-12-16T03:19:27.587Z,1.23
2022-12-16T03:22:24.575Z,1.10
2022-12-16T03:25:17.680Z,1.02
2022-12-16T03:28:20.486Z,1.23
2022-12-16T03:31:26.620Z,1.17
2022-12-16T03:34:31.702Z,1.30
2022-12-16T03:37:30.153Z,1.23
2022-12-16T03:40:24.429Z,1.23
2022-12-16T03:43:17.507Z,1.27
2022-12-16T03:46:11.322Z,1.00
2022-12-16T03:49:03.998Z,1.23
2022-12-16T03:51:58.597Z,1.20
2022-12-16T03:54:51.083Z,1.20
2022-12-16T03:57:44.220Z,1.13
2022-12-16T04:00:37.609Z,1.08
2022-12-16T04:03:30.905Z,1.40
2022-12-16T04:06:24.370Z,1.10
2022-12-16T04:09:18.734Z,1.13
2022-12-16T04:12:30.029Z,1.10
2022-12-16T04:15:41.345Z,0.93
2022-12-16T04:18:52.778Z,1.10
2022-12-16T04:22:03.947Z,0.90
2022-12-16T04:25:01.815Z,1.05
2022-12-16T04:27:55.386Z,1.00
2022-12-16T04:30:48.214Z,1.00
2022-12-16T04:33:59.245Z,0.90
2022-12-16T04:37:21.509Z,1.15
2022-12-16T04:40:33.386Z,1.00
2022-12-16T04:43:43.986Z,1.00
2022-12-16T04:46:55.166Z,1.15
2022-12-16T04:50:06.329Z,1.33
2022-12-16T04:53:16.726Z,1.23
2022-12-16T04:56:29.375Z,0.93
2022-12-16T04:59:39.546Z,1.00
2022-12-16T05:02:49.669Z,1.10
2022-12-16T05:06:01.226Z,0.90
2022-12-16T05:09:11.462Z,1.00
2022-12-16T05:12:23.590Z,1.08
2022-12-16T05:15:33.616Z,1.17
2022-12-16T05:18:43.607Z,1.00
2022-12-16T05:21:53.419Z,1.27
2022-12-16T05:25:03.313Z,1.30
2022-12-16T05:28:16.381Z,1.07
2022-12-16T05:31:26.550Z,1.40
2022-12-16T05:34:36.549Z,1.23
2022-12-16T05:37:46.758Z,1.13
2022-12-16T05:40:57.659Z,0.83
2022-12-16T05:44:08.961Z,0.90
2022-12-16T05:47:20.202Z,0.80
2022-12-16T05:50:31.338Z,1.08
2022-12-16T05:53:41.671Z,1.08
2022-12-16T05:56:51.871Z,1.00
2022-12-16T06:00:03.945Z,1.02
2022-12-16T06:03:14.528Z,0.93
2022-12-16T06:06:25.381Z,0.90
2022-12-16T06:09:35.598Z,0.98
2022-12-16T06:12:45.814Z,1.10
2022-12-16T06:15:57.683Z,1.00
2022-12-16T06:19:07.276Z,1.10
2022-12-16T06:22:17.551Z,1.25
2022-12-16T06:25:34.334Z,0.90
2022-12-16T06:28:46.116Z,0.80
2022-12-16T06:31:58.185Z,0.98
2022-12-16T06:35:08.819Z,0.95
2022-12-16T06:38:19.559Z,0.82
2022-12-16T06:41:41.429Z,1.00
2022-12-16T06:44:51.834Z,0.85
2022-12-16T06:48:03.823Z,1.00
2022-12-16T06:51:14.818Z,1.00
2022-12-16T06:54:25.740Z,0.68
2022-12-16T06:57:35.541Z,0.95
2022-12-16T07:00:45.754Z,1.20
2022-12-16T07:03:57.848Z,0.93
2022-12-16T07:07:07.601Z,0.90
2022-12-16T07:10:17.903Z,1.42
2022-12-16T07:13:28.906Z,0.95
2022-12-16T07:16:39.956Z,0.90
2022-12-16T07:19:52.505Z,1.25
2022-12-16T07:23:10.999Z,0.93
2022-12-16T07:26:27.241Z,0.70
2022-12-16T07:29:42.922Z,0.90
2022-12-16T07:32:53.979Z,0.65
2022-12-16T07:36:02.556Z,0.80
2022-12-16T07:39:12.939Z,0.93
2022-12-16T07:42:23.930Z,0.88
2022-12-16T07:45:34.686Z,0.98
2022-12-16T07:48:44.539Z,0.90
2022-12-16T07:51:56.231Z,0.90
2022-12-16T07:55:06.808Z,0.73
2022-12-16T07:58:17.653Z,0.70
2022-12-16T08:01:27.777Z,0.80
2022-12-16T08:04:38.904Z,0.90
2022-12-16T08:07:51.044Z,0.90
2022-12-16T08:11:01.538Z,1.00
2022-12-16T08:14:11.792Z,1.00
2022-12-16T08:17:22.508Z,1.10
2022-12-16T08:20:32.778Z,0.70
2022-12-16T08:23:44.995Z,0.80
2022-12-16T08:26:55.727Z,1.00
2022-12-16T08:30:05.555Z,1.13
2022-12-16T08:33:19.708Z,0.60
2022-12-16T08:36:31.046Z,1.08
2022-12-16T08:39:43.143Z,0.88
2022-12-16T08:42:54.199Z,0.90
2022-12-16T08:46:06.867Z,0.70
2022-12-16T08:49:32.353Z,0.80
2022-12-16T08:52:42.937Z,0.82
2022-12-16T08:55:55.829Z,0.93
2022-12-16T08:59:06.966Z,0.90
2022-12-16T09:02:17.835Z,0.95
2022-12-16T09:05:28.896Z,0.82
2022-12-16T09:08:39.669Z,1.08
2022-12-16T09:11:50.856Z,0.82
2022-12-16T09:15:02.050Z,0.88
2022-12-16T09:18:14.021Z,1.00
2022-12-16T09:21:28.888Z,0.88
2022-12-16T09:24:41.003Z,0.90
2022-12-16T09:27:52.979Z,0.88
2022-12-16T09:31:03.889Z,1.05
2022-12-16T09:34:14.845Z,0.90
2022-12-16T09:37:24.888Z,0.90
2022-12-16T09:40:37.037Z,0.70
2022-12-16T09:44:00.956Z,1.00
2022-12-16T09:47:22.154Z,1.00
2022-12-16T09:50:39.137Z,0.75
2022-12-16T09:53:55.094Z,0.80
2022-12-16T09:57:07.843Z,0.70
2022-12-16T10:00:24.358Z,0.85
2022-12-16T10:03:46.444Z,0.75
2022-12-16T10:07:00.891Z,0.83
2022-12-16T10:10:20.665Z,0.93
2022-12-16T10:13:37.881Z,0.80
2022-12-16T10:16:59.955Z,1.00
2022-12-16T10:20:34.674Z,1.00
2022-12-16T10:23:52.058Z,0.80
2022-12-16T10:27:11.690Z,1.02
2022-12-16T10:30:22.632Z,0.70
2022-12-16T10:33:36.568Z,0.88
2022-12-16T10:36:47.217Z,0.90
2022-12-16T10:40:02.794Z,0.87
2022-12-16T10:43:22.370Z,0.70
2022-12-16T10:46:39.826Z,1.02
2022-12-16T10:49:54.968Z,0.83
2022-12-16T10:53:15.213Z,0.80
2022-12-16T10:56:36.693Z,0.60
2022-12-16T10:59:54.442Z,0.97
2022-12-16T11:03:04.973Z,0.68
2022-12-16T11:06:19.817Z,0.90
2022-12-16T11:09:38.676Z,0.90
2022-12-16T11:12:50.649Z,0.80
2022-12-16T11:16:01.773Z,0.80
2022-12-16T11:19:11.584Z,0.77
2022-12-16T11:22:36.150Z,0.90
2022-12-16T11:25:47.330Z,1.00
2022-12-16T11:28:57.725Z,0.90
2022-12-16T11:32:12.854Z,0.75
2022-12-16T11:35:28.876Z,0.83
2022-12-16T11:38:46.771Z,0.98
2022-12-16T11:42:00.350Z,0.80
2022-12-16T11:45:14.283Z,0.70
2022-12-16T11:48:31.347Z,1.02
2022-12-16T11:51:45.253Z,0.90
2022-12-16T11:55:03.146Z,0.90
2022-12-16T11:58:28.703Z,1.00
2022-12-16T12:01:45.560Z,0.98
2022-12-16T12:04:52.651Z,0.90
2022-12-16T12:08:13.065Z,0.95
2022-12-16T12:11:32.311Z,0.90
2022-12-16T12:14:53.642Z,0.90
2022-12-16T12:18:12.994Z,0.67
2022-12-16T12:21:31.982Z,1.00
2022-12-16T12:24:52.405Z,0.90
2022-12-16T12:28:17.829Z,1.25
2022-12-16T12:31:42.655Z,0.77
2022-12-16T12:35:02.126Z,0.90
2022-12-16T12:38:21.924Z,0.93
2022-12-16T12:41:38.464Z,0.75
2022-12-16T12:44:58.745Z,0.85
2022-12-16T12:48:13.934Z,1.00
2022-12-16T12:51:29.061Z,0.90
2022-12-16T12:54:49.239Z,0.82
2022-12-16T12:58:01.957Z,0.95
2022-12-16T13:01:17.187Z,0.90
2022-12-16T13:04:32.255Z,0.88
2022-12-16T13:07:43.454Z,1.13
2022-12-16T13:10:55.800Z,0.77
2022-12-16T13:14:06.284Z,1.00
2022-12-16T13:17:23.691Z,0.80
2022-12-16T13:20:56.557Z,0.85
2022-12-16T13:24:07.131Z,1.02
2022-12-16T13:27:20.032Z,0.82
2022-12-16T13:30:41.481Z,0.80
2022-12-16T13:33:53.721Z,0.90
2022-12-16T13:37:04.879Z,1.15
2022-12-16T13:40:23.176Z,0.80
2022-12-16T13:44:03.016Z,1.05
2022-12-16T13:47:11.175Z,0.95
2022-12-16T13:50:52.197Z,0.88
2022-12-16T13:54:07.578Z,0.70
2022-12-16T13:57:22.447Z,0.73
2022-12-16T14:00:37.556Z,0.85
2022-12-16T14:03:58.982Z,0.80
2022-12-16T14:07:26.161Z,0.65
2022-12-16T14:10:44.223Z,0.90
2022-12-16T14:14:02.406Z,0.90
2022-12-16T14:17:17.004Z,0.80
2022-12-16T14:20:34.543Z,0.85
2022-12-16T14:23:57.756Z,0.88
2022-12-16T14:27:09.297Z,0.88
2022-12-16T14:30:21.858Z,0.70
2022-12-16T14:33:36.635Z,0.70
2022-12-16T14:36:56.068Z,0.77
2022-12-16T14:40:08.662Z,0.90
2022-12-16T14:43:19.492Z,0.90
2022-12-16T14:46:43.243Z,0.65
2022-12-16T14:50:02.495Z,0.87
2022-12-16T14:53:31.105Z,0.73
2022-12-16T14:56:43.639Z,0.80
2022-12-16T14:59:54.052Z,0.73
2022-12-16T15:03:06.206Z,0.75
2022-12-16T15:06:20.084Z,0.70
2022-12-16T15:09:41.679Z,0.70
2022-12-16T15:12:57.719Z,0.80
2022-12-16T15:16:08.908Z,0.88
2022-12-16T15:19:21.274Z,0.80
2022-12-16T15:22:34.161Z,0.63
2022-12-16T15:25:45.584Z,0.80
2022-12-16T15:28:59.227Z,1.20
2022-12-16T15:32:09.905Z,1.10
2022-12-16T15:35:20.301Z,0.73
2022-12-16T15:38:36.462Z,0.90
2022-12-16T15:41:50.905Z,0.70
2022-12-16T15:45:08.332Z,0.77
2022-12-16T15:48:31.135Z,0.63
2022-12-16T15:51:48.325Z,0.80
2022-12-16T15:55:11.141Z,0.80
2022-12-16T15:58:21.840Z,0.60
2022-12-16T16:01:36.334Z,0.77
2022-12-16T16:04:49.294Z,0.70
2022-12-16T16:08:04.002Z,0.80
2022-12-16T16:11:16.928Z,0.80
2022-12-16T16:14:27.217Z,0.82
2022-12-16T16:17:41.782Z,0.75
2022-12-16T16:20:52.044Z,0.70
2022-12-16T16:24:01.771Z,0.70
2022-12-16T16:27:12.818Z,0.85
2022-12-16T16:30:24.513Z,0.80
2022-12-16T16:33:36.484Z,0.90
2022-12-16T16:36:56.119Z,0.85
2022-12-16T16:40:06.468Z,0.70
2022-12-16T16:43:16.924Z,0.57
2022-12-16T16:46:46.319Z,0.93
2022-12-16T16:50:01.415Z,0.88
2022-12-16T16:53:11.972Z,0.52
2022-12-16T16:56:22.894Z,1.00
2022-12-16T16:59:32.959Z,0.80
2022-12-16T17:02:44.119Z,0.52
2022-12-16T17:05:56.653Z,0.65
2022-12-16T17:09:07.712Z,0.90
2022-12-16T17:12:26.499Z,0.80
2022-12-16T17:15:40.446Z,0.63
2022-12-16T17:18:52.655Z,0.93
2022-12-16T17:22:05.069Z,0.70
2022-12-16T17:25:15.187Z,1.08
2022-12-16T17:28:28.149Z,0.70
2022-12-16T17:31:38.277Z,0.70
2022-12-16T17:34:49.398Z,0.57
2022-12-16T17:38:01.782Z,0.75
2022-12-16T17:41:12.186Z,0.70
2022-12-16T17:44:27.434Z,0.80
2022-12-16T17:47:38.034Z,0.70
2022-12-16T17:50:48.147Z,0.80
2022-12-16T17:54:03.054Z,0.80
2022-12-16T17:57:16.582Z,0.70
2022-12-16T18:00:28.470Z,0.75
2022-12-16T18:03:47.957Z,1.10
2022-12-16T18:06:58.293Z,0.68
2022-12-16T18:10:10.518Z,0.73
2022-12-16T18:13:21.432Z,0.73
2022-12-16T18:16:32.038Z,0.87
2022-12-16T18:19:44.168Z,0.80
2022-12-16T18:22:54.169Z,0.60
2022-12-16T18:26:15.968Z,0.77
2022-12-16T18:29:26.086Z,1.00
2022-12-16T18:32:36.483Z,0.55
2022-12-16T18:35:46.888Z,0.70
2022-12-16T18:38:57.345Z,0.80
2022-12-16T18:42:09.872Z,0.73
2022-12-16T18:45:20.291Z,0.70
2022-12-16T18:48:31.238Z,0.70
2022-12-16T18:51:46.589Z,0.50
2022-12-16T18:54:57.486Z,0.70
2022-12-16T18:58:34.895Z,0.90
2022-12-16T19:01:42.412Z,0.82
2022-12-16T19:04:53.182Z,0.70
2022-12-16T19:08:03.247Z,1.05
2022-12-16T19:11:15.616Z,0.80
2022-12-16T19:14:27.674Z,0.63
2022-12-16T19:17:38.211Z,0.70
2022-12-16T19:20:48.230Z,0.57
2022-12-16T19:23:59.846Z,0.90
2022-12-16T19:27:15.158Z,0.80
2022-12-16T19:30:29.087Z,0.75
2022-12-16T19:33:39.318Z,0.60
2022-12-16T19:36:50.156Z,0.75
2022-12-16T19:40:00.738Z,0.80
2022-12-16T19:43:11.632Z,0.80
2022-12-16T19:46:23.966Z,0.70
2022-12-16T19:49:37.202Z,0.60
2022-12-16T19:52:52.198Z,0.63
2022-12-16T19:56:06.397Z,0.60
2022-12-16T19:59:17.260Z,0.88
2022-12-16T20:02:30.536Z,0.90
2022-12-16T20:05:40.823Z,0.80
2022-12-16T20:08:51.222Z,0.80
2022-12-16T20:12:03.044Z,0.57
2022-12-16T20:15:13.667Z,0.55
2022-12-16T20:18:26.083Z,0.60
2022-12-16T20:21:36.032Z,0.75
2022-12-16T20:24:46.328Z,0.60
2022-12-16T20:27:57.543Z,0.70
2022-12-16T20:31:08.089Z,0.80
2022-12-16T20:34:19.607Z,0.70
2022-12-16T20:37:30.245Z,0.77
2022-12-16T20:40:40.646Z,0.63
2022-12-16T20:43:51.707Z,1.02
2022-12-16T20:47:02.251Z,0.75
2022-12-16T20:50:14.472Z,0.85
2022-12-16T20:53:24.977Z,0.73
2022-12-16T20:56:35.169Z,1.08
2022-12-16T20:59:45.730Z,0.77
2022-12-16T21:02:56.276Z,0.65
2022-12-16T21:06:07.774Z,0.60
2022-12-16T21:09:18.355Z,1.00
2022-12-16T21:12:29.322Z,0.75
2022-12-16T21:15:39.207Z,0.50
2022-12-16T21:18:49.089Z,0.90
2022-12-16T21:22:00.636Z,0.80
2022-12-16T21:25:11.332Z,0.73
2022-12-16T21:28:21.614Z,0.80
2022-12-16T21:31:32.293Z,0.90
2022-12-16T21:34:42.261Z,0.88
2022-12-16T21:37:53.603Z,0.90
2022-12-16T21:41:10.311Z,1.13
2022-12-16T21:44:20.362Z,0.88
2022-12-16T21:47:30.216Z,0.95
2022-12-16T21:50:40.351Z,0.85
2022-12-16T21:53:53.562Z,0.82
2022-12-16T21:57:04.127Z,0.70
2022-12-16T22:00:14.177Z,0.90
2022-12-16T22:03:24.401Z,1.10
2022-12-16T22:06:35.345Z,0.70
2022-12-16T22:09:46.693Z,0.80
2022-12-16T22:12:57.003Z,1.15
2022-12-16T22:16:13.900Z,1.05
2022-12-16T22:19:24.188Z,0.90
2022-12-16T22:22:34.421Z,0.70
2022-12-16T22:25:46.613Z,1.02
2022-12-16T22:28:57.295Z,0.80
2022-12-16T22:32:07.238Z,1.02
2022-12-16T22:35:17.204Z,0.73
2022-12-16T22:38:27.413Z,0.70
2022-12-16T22:41:39.806Z,1.00
2022-12-16T22:44:51.332Z,1.00
2022-12-16T22:48:02.702Z,1.00
2022-12-16T22:51:13.265Z,1.00
2022-12-16T22:54:23.686Z,0.80
2022-12-16T22:57:35.642Z,1.08
2022-12-16T23:00:46.356Z,0.80
2022-12-16T23:03:56.719Z,0.95
2022-12-16T23:07:07.441Z,0.98
2022-12-16T23:10:18.237Z,1.08
2022-12-16T23:13:31.349Z,0.90
2022-12-16T23:16:41.495Z,1.00
2022-12-16T23:19:52.347Z,1.05
2022-12-16T23:23:06.343Z,0.80
2022-12-16T23:26:17.608Z,0.93
2022-12-16T23:29:30.592Z,0.90
2022-12-16T23:32:41.222Z,1.15
2022-12-16T23:35:51.170Z,0.98
2022-12-16T23:39:02.729Z,0.90
2022-12-16T23:42:13.484Z,1.13
2022-12-16T23:45:26.819Z,1.10
2022-12-16T23:48:37.456Z,0.90
2022-12-16T23:51:48.570Z,1.00
2022-12-16T23:54:59.314Z,0.70
2022-12-16T23:58:16.805Z,0.80
